sensor_id;sensor_type;location;lat;lon;timestamp;pressure;altitude;pressure_sealevel;temperature;humidity
37648;BME280;23490;53.656;10.076;2023-11-18T00:00:19;99628.66;;;-145.95;100.00
37648;BME280;23490;53.656;10.076;2023-11-18T00:02:45;99608.00;;;-145.95;100.00
37648;BME280;23490;53.656;10.076;2023-11-18T00:05:11;99645.19;;;-145.95;100.00
37648;BME280;23490;53.656;10.076;2023-11-18T00:07:37;99649.31;;;-145.95;100.00
37648;BME280;23490;53.656;10.076;2023-11-18T00:10:03;99655.50;;;-145.95;100.00
37648;BME280;23490;53.656;10.076;2023-11-18T00:12:29;99698.88;;;-145.95;100.00
37648;BME280;23490;53.656;10.076;2023-11-18T00:14:54;99645.19;;;-145.95;100.00
37648;BME280;23490;53.656;10.076;2023-11-18T00:17:20;99645.19;;;-145.95;100.00
37648;BME280;23490;53.656;10.076;2023-11-18T00:19:46;99624.53;;;-145.95;100.00
37648;BME280;23490;53.656;10.076;2023-11-18T00:22:11;99639.00;;;-145.95;100.00
37648;BME280;23490;53.656;10.076;2023-11-18T00:24:37;99653.44;;;-145.95;100.00
37648;BME280;23490;53.656;10.076;2023-11-18T00:27:03;99665.84;;;-145.95;100.00
37648;BME280;23490;53.656;10.076;2023-11-18T00:29:35;99674.09;;;-145.95;100.00
37648;BME280;23490;53.656;10.076;2023-11-18T00:32:03;99628.66;;;-145.95;100.00
37648;BME280;23490;53.656;10.076;2023-11-18T00:34:29;99641.06;;;-145.95;100.00
37648;BME280;23490;53.656;10.076;2023-11-18T00:36:55;99641.06;;;-145.95;100.00
37648;BME280;23490;53.656;10.076;2023-11-18T00:39:23;99665.84;;;-145.95;100.00
37648;BME280;23490;53.656;10.076;2023-11-18T00:41:48;99583.22;;;-145.95;100.00
37648;BME280;23490;53.656;10.076;2023-11-18T00:44:14;99616.28;;;-145.95;100.00
37648;BME280;23490;53.656;10.076;2023-11-18T00:46:39;99641.06;;;-145.95;100.00
37648;BME280;23490;53.656;10.076;2023-11-18T00:49:05;99645.19;;;-145.95;100.00
37648;BME280;23490;53.656;10.076;2023-11-18T00:51:30;99649.31;;;-145.95;100.00
37648;BME280;23490;53.656;10.076;2023-11-18T00:53:56;99645.19;;;-145.95;100.00
37648;BME280;23490;53.656;10.076;2023-11-18T00:56:21;99653.44;;;-145.95;100.00
37648;BME280;23490;53.656;10.076;2023-11-18T00:58:50;99651.38;;;-145.95;100.00
37648;BME280;23490;53.656;10.076;2023-11-18T01:01:15;99639.00;;;-145.95;100.00
37648;BME280;23490;53.656;10.076;2023-11-18T01:03:45;99620.41;;;-145.95;100.00
37648;BME280;23490;53.656;10.076;2023-11-18T01:06:11;99636.94;;;-145.95;100.00
37648;BME280;23490;53.656;10.076;2023-11-18T01:08:37;99610.06;;;-145.95;100.00
37648;BME280;23490;53.656;10.076;2023-11-18T01:11:02;99634.84;;;-145.95;100.00
37648;BME280;23490;53.656;10.076;2023-11-18T01:13:29;99653.44;;;-145.95;100.00
37648;BME280;23490;53.656;10.076;2023-11-18T01:15:55;99678.22;;;-145.95;100.00
37648;BME280;23490;53.656;10.076;2023-11-18T01:18:20;99653.44;;;-145.95;100.00
37648;BME280;23490;53.656;10.076;2023-11-18T01:20:46;99653.44;;;-145.95;100.00
37648;BME280;23490;53.656;10.076;2023-11-18T01:23:12;99649.31;;;-145.95;100.00
37648;BME280;23490;53.656;10.076;2023-11-18T01:25:40;99653.44;;;-145.95;100.00
37648;BME280;23490;53.656;10.076;2023-11-18T01:28:06;99614.22;;;-145.95;100.00
37648;BME280;23490;53.656;10.076;2023-11-18T01:30:32;99593.56;;;-145.95;100.00
37648;BME280;23490;53.656;10.076;2023-11-18T01:32:58;99616.28;;;-145.95;100.00
37648;BME280;23490;53.656;10.076;2023-11-18T01:35:29;99645.19;;;-145.95;100.00
37648;BME280;23490;53.656;10.076;2023-11-18T01:37:54;99649.31;;;-145.95;100.00
37648;BME280;23490;53.656;10.076;2023-11-18T01:40:20;99616.28;;;-145.95;100.00
37648;BME280;23490;53.656;10.076;2023-11-18T01:42:46;99669.97;;;-145.95;100.00
37648;BME280;23490;53.656;10.076;2023-11-18T01:45:14;99669.97;;;-145.95;100.00
37648;BME280;23490;53.656;10.076;2023-11-18T01:47:42;99649.31;;;-145.95;100.00
37648;BME280;23490;53.656;10.076;2023-11-18T01:50:09;99636.94;;;-145.95;100.00
37648;BME280;23490;53.656;10.076;2023-11-18T01:52:37;99657.56;;;-145.95;100.00
37648;BME280;23490;53.656;10.076;2023-11-18T01:55:03;99657.56;;;-145.95;100.00
37648;BME280;23490;53.656;10.076;2023-11-18T01:57:33;99614.22;;;-145.95;100.00
37648;BME280;23490;53.656;10.076;2023-11-18T01:59:59;99643.13;;;-145.95;100.00
37648;BME280;23490;53.656;10.076;2023-11-18T02:02:25;99661.72;;;-145.95;100.00
37648;BME280;23490;53.656;10.076;2023-11-18T02:04:51;99632.78;;;-145.95;100.00
37648;BME280;23490;53.656;10.076;2023-11-18T02:07:17;99647.25;;;-145.95;100.00
37648;BME280;23490;53.656;10.076;2023-11-18T02:09:43;99649.31;;;-145.95;100.00
37648;BME280;23490;53.656;10.076;2023-11-18T02:12:25;99665.84;;;-145.95;100.00
37648;BME280;23490;53.656;10.076;2023-11-18T02:14:53;99651.38;;;-145.95;100.00
37648;BME280;23490;53.656;10.076;2023-11-18T02:17:22;99665.84;;;-145.95;100.00
37648;BME280;23490;53.656;10.076;2023-11-18T02:19:56;99641.06;;;-145.95;100.00
37648;BME280;23490;53.656;10.076;2023-11-18T02:22:23;99657.56;;;-145.95;100.00
37648;BME280;23490;53.656;10.076;2023-11-18T02:24:49;99636.94;;;-145.95;100.00
37648;BME280;23490;53.656;10.076;2023-11-18T02:27:15;99653.44;;;-145.95;100.00
37648;BME280;23490;53.656;10.076;2023-11-18T02:29:42;99620.41;;;-145.95;100.00
37648;BME280;23490;53.656;10.076;2023-11-18T02:32:30;99657.56;;;-145.95;100.00
37648;BME280;23490;53.656;10.076;2023-11-18T02:35:29;99649.31;;;-145.95;100.00
37648;BME280;23490;53.656;10.076;2023-11-18T02:37:55;99686.50;;;-145.95;100.00
37648;BME280;23490;53.656;10.076;2023-11-18T02:40:27;99678.22;;;-145.95;100.00
37648;BME280;23490;53.656;10.076;2023-11-18T02:42:57;99657.56;;;-145.95;100.00
37648;BME280;23490;53.656;10.076;2023-11-18T02:45:25;99653.44;;;-145.95;100.00
37648;BME280;23490;53.656;10.076;2023-11-18T02:47:52;99616.28;;;-145.95;100.00
37648;BME280;23490;53.656;10.076;2023-11-18T02:50:25;99636.94;;;-145.95;100.00
37648;BME280;23490;53.656;10.076;2023-11-18T02:52:53;99645.19;;;-145.95;100.00
37648;BME280;23490;53.656;10.076;2023-11-18T02:55:18;99628.66;;;-145.95;100.00
37648;BME280;23490;53.656;10.076;2023-11-18T02:57:46;99653.44;;;-145.95;100.00
37648;BME280;23490;53.656;10.076;2023-11-18T03:00:12;99665.84;;;-145.95;100.00
37648;BME280;23490;53.656;10.076;2023-11-18T03:02:43;99639.00;;;-145.95;100.00
37648;BME280;23490;53.656;10.076;2023-11-18T03:05:09;99645.19;;;-145.95;100.00
37648;BME280;23490;53.656;10.076;2023-11-18T03:07:37;99628.66;;;-145.95;100.00
37648;BME280;23490;53.656;10.076;2023-11-18T03:10:03;99643.13;;;-145.95;100.00
37648;BME280;23490;53.656;10.076;2023-11-18T03:12:34;99686.50;;;-145.95;100.00
37648;BME280;23490;53.656;10.076;2023-11-18T03:15:00;99641.06;;;-145.95;100.00
37648;BME280;23490;53.656;10.076;2023-11-18T03:17:26;99678.22;;;-145.95;100.00
37648;BME280;23490;53.656;10.076;2023-11-18T03:19:51;99641.06;;;-145.95;100.00
37648;BME280;23490;53.656;10.076;2023-11-18T03:22:16;99632.78;;;-145.95;100.00
37648;BME280;23490;53.656;10.076;2023-11-18T03:24:42;99661.72;;;-145.95;100.00
37648;BME280;23490;53.656;10.076;2023-11-18T03:27:08;99674.09;;;-145.95;100.00
37648;BME280;23490;53.656;10.076;2023-11-18T03:29:34;99636.94;;;-145.95;100.00
37648;BME280;23490;53.656;10.076;2023-11-18T03:31:59;99665.84;;;-145.95;100.00
37648;BME280;23490;53.656;10.076;2023-11-18T03:34:25;99665.84;;;-145.95;100.00
37648;BME280;23490;53.656;10.076;2023-11-18T03:36:50;99636.94;;;-145.95;100.00
37648;BME280;23490;53.656;10.076;2023-11-18T03:39:16;99636.94;;;-145.95;100.00
37648;BME280;23490;53.656;10.076;2023-11-18T03:41:41;99649.31;;;-145.95;100.00
37648;BME280;23490;53.656;10.076;2023-11-18T03:44:13;99669.97;;;-145.95;100.00
37648;BME280;23490;53.656;10.076;2023-11-18T03:46:38;99643.13;;;-145.95;100.00
37648;BME280;23490;53.656;10.076;2023-11-18T03:49:03;99616.28;;;-145.95;100.00
37648;BME280;23490;53.656;10.076;2023-11-18T03:51:29;99649.31;;;-145.95;100.00
37648;BME280;23490;53.656;10.076;2023-11-18T03:53:55;99682.38;;;-145.95;100.00
37648;BME280;23490;53.656;10.076;2023-11-18T03:56:20;99643.13;;;-145.95;100.00
37648;BME280;23490;53.656;10.076;2023-11-18T03:58:46;99661.72;;;-145.95;100.00
37648;BME280;23490;53.656;10.076;2023-11-18T04:01:24;99636.94;;;-145.95;100.00
37648;BME280;23490;53.656;10.076;2023-11-18T04:03:52;99665.84;;;-145.95;100.00
37648;BME280;23490;53.656;10.076;2023-11-18T04:06:17;99641.06;;;-145.95;100.00
37648;BME280;23490;53.656;10.076;2023-11-18T04:08:44;99684.44;;;-145.95;100.00
37648;BME280;23490;53.656;10.076;2023-11-18T04:11:11;99686.50;;;-145.95;100.00
37648;BME280;23490;53.656;10.076;2023-11-18T04:13:36;99653.44;;;-145.95;100.00
37648;BME280;23490;53.656;10.076;2023-11-18T04:16:02;99653.44;;;-145.95;100.00
37648;BME280;23490;53.656;10.076;2023-11-18T04:18:28;99682.38;;;-145.95;100.00
37648;BME280;23490;53.656;10.076;2023-11-18T04:20:54;99709.22;;;-145.95;100.00
37648;BME280;23490;53.656;10.076;2023-11-18T04:23:19;99632.78;;;-145.95;100.00
37648;BME280;23490;53.656;10.076;2023-11-18T04:25:45;99657.56;;;-145.95;100.00
37648;BME280;23490;53.656;10.076;2023-11-18T04:28:10;99636.94;;;-145.95;100.00
37648;BME280;23490;53.656;10.076;2023-11-18T04:30:35;99645.19;;;-145.95;100.00
37648;BME280;23490;53.656;10.076;2023-11-18T04:33:01;99657.56;;;-145.95;100.00
37648;BME280;23490;53.656;10.076;2023-11-18T04:35:26;99657.56;;;-145.95;100.00
37648;BME280;23490;53.656;10.076;2023-11-18T04:37:51;99632.78;;;-145.95;100.00
37648;BME280;23490;53.656;10.076;2023-11-18T04:40:17;99659.66;;;-145.95;100.00
37648;BME280;23490;53.656;10.076;2023-11-18T04:42:42;99669.97;;;-145.95;100.00
37648;BME280;23490;53.656;10.076;2023-11-18T04:45:08;99599.75;;;-145.95;100.00
37648;BME280;23490;53.656;10.076;2023-11-18T04:47:35;99665.84;;;-145.95;100.00
37648;BME280;23490;53.656;10.076;2023-11-18T04:50:01;99643.13;;;-145.95;100.00
37648;BME280;23490;53.656;10.076;2023-11-18T04:52:27;99643.13;;;-145.95;100.00
37648;BME280;23490;53.656;10.076;2023-11-18T04:54:52;99628.66;;;-145.95;100.00
37648;BME280;23490;53.656;10.076;2023-11-18T04:57:17;99657.56;;;-145.95;100.00
37648;BME280;23490;53.656;10.076;2023-11-18T04:59:43;99649.31;;;-145.95;100.00
37648;BME280;23490;53.656;10.076;2023-11-18T05:02:08;99665.84;;;-145.95;100.00
37648;BME280;23490;53.656;10.076;2023-11-18T05:04:34;99678.22;;;-145.95;100.00
37648;BME280;23490;53.656;10.076;2023-11-18T05:06:59;99653.44;;;-145.95;100.00
37648;BME280;23490;53.656;10.076;2023-11-18T05:09:24;99645.19;;;-145.95;100.00
37648;BME280;23490;53.656;10.076;2023-11-18T05:11:50;99618.34;;;-145.95;100.00
37648;BME280;23490;53.656;10.076;2023-11-18T05:14:16;99678.22;;;-145.95;100.00
37648;BME280;23490;53.656;10.076;2023-11-18T05:16:42;99669.97;;;-145.95;100.00
37648;BME280;23490;53.656;10.076;2023-11-18T05:19:07;99628.66;;;-145.95;100.00
37648;BME280;23490;53.656;10.076;2023-11-18T05:21:33;99665.84;;;-145.95;100.00
37648;BME280;23490;53.656;10.076;2023-11-18T05:23:58;99653.44;;;-145.95;100.00
37648;BME280;23490;53.656;10.076;2023-11-18T05:26:23;99678.22;;;-145.95;100.00
37648;BME280;23490;53.656;10.076;2023-11-18T05:28:49;99645.19;;;-145.95;100.00
37648;BME280;23490;53.656;10.076;2023-11-18T05:31:15;99676.16;;;-145.95;100.00
37648;BME280;23490;53.656;10.076;2023-11-18T05:33:42;99641.06;;;-145.95;100.00
37648;BME280;23490;53.656;10.076;2023-11-18T05:36:08;99641.06;;;-145.95;100.00
37648;BME280;23490;53.656;10.076;2023-11-18T05:38:33;99634.84;;;-145.95;100.00
37648;BME280;23490;53.656;10.076;2023-11-18T05:41:01;99649.31;;;-145.95;100.00
37648;BME280;23490;53.656;10.076;2023-11-18T05:43:32;99715.41;;;-145.95;100.00
37648;BME280;23490;53.656;10.076;2023-11-18T05:46:03;99661.72;;;-145.95;100.00
37648;BME280;23490;53.656;10.076;2023-11-18T05:48:45;99636.94;;;-145.95;100.00
37648;BME280;23490;53.656;10.076;2023-11-18T05:51:11;99690.63;;;-145.95;100.00
37648;BME280;23490;53.656;10.076;2023-11-18T05:53:43;99659.66;;;-145.95;100.00
37648;BME280;23490;53.656;10.076;2023-11-18T05:56:11;99657.56;;;-145.95;100.00
37648;BME280;23490;53.656;10.076;2023-11-18T05:58:37;99674.09;;;-145.95;100.00
37648;BME280;23490;53.656;10.076;2023-11-18T06:01:04;99669.97;;;-145.95;100.00
37648;BME280;23490;53.656;10.076;2023-11-18T06:03:30;99645.19;;;-145.95;100.00
37648;BME280;23490;53.656;10.076;2023-11-18T06:05:56;99641.06;;;-145.95;100.00
37648;BME280;23490;53.656;10.076;2023-11-18T06:08:21;99678.22;;;-145.95;100.00
37648;BME280;23490;53.656;10.076;2023-11-18T06:10:48;99661.72;;;-145.95;100.00
37648;BME280;23490;53.656;10.076;2023-11-18T06:13:14;99667.91;;;-145.95;100.00
37648;BME280;23490;53.656;10.076;2023-11-18T06:15:41;99636.94;;;-145.95;100.00
37648;BME280;23490;53.656;10.076;2023-11-18T06:18:08;99649.31;;;-145.95;100.00
37648;BME280;23490;53.656;10.076;2023-11-18T06:20:34;99692.69;;;-145.95;100.00
37648;BME280;23490;53.656;10.076;2023-11-18T06:23:00;99632.78;;;-145.95;100.00
37648;BME280;23490;53.656;10.076;2023-11-18T06:25:26;99678.22;;;-145.95;100.00
37648;BME280;23490;53.656;10.076;2023-11-18T06:27:51;99688.56;;;-145.95;100.00
37648;BME280;23490;53.656;10.076;2023-11-18T06:30:19;99653.44;;;-145.95;100.00
37648;BME280;23490;53.656;10.076;2023-11-18T06:32:45;99647.25;;;-145.95;100.00
37648;BME280;23490;53.656;10.076;2023-11-18T06:35:12;99678.22;;;-145.95;100.00
37648;BME280;23490;53.656;10.076;2023-11-18T06:37:40;99632.78;;;-145.95;100.00
37648;BME280;23490;53.656;10.076;2023-11-18T06:40:06;99674.09;;;-145.95;100.00
37648;BME280;23490;53.656;10.076;2023-11-18T06:42:44;99655.50;;;-145.95;100.00
37648;BME280;23490;53.656;10.076;2023-11-18T06:45:12;99678.22;;;-145.95;100.00
37648;BME280;23490;53.656;10.076;2023-11-18T06:47:38;99663.78;;;-145.95;100.00
37648;BME280;23490;53.656;10.076;2023-11-18T06:50:07;99676.16;;;-145.95;100.00
37648;BME280;23490;53.656;10.076;2023-11-18T06:52:36;99653.44;;;-145.95;100.00
37648;BME280;23490;53.656;10.076;2023-11-18T06:55:03;99653.44;;;-145.95;100.00
37648;BME280;23490;53.656;10.076;2023-11-18T06:57:29;99657.56;;;-145.95;100.00
37648;BME280;23490;53.656;10.076;2023-11-18T06:59:54;99674.09;;;-145.95;100.00
37648;BME280;23490;53.656;10.076;2023-11-18T07:02:19;99686.50;;;-145.95;100.00
37648;BME280;23490;53.656;10.076;2023-11-18T07:04:46;99657.56;;;-145.95;100.00
37648;BME280;23490;53.656;10.076;2023-11-18T07:07:11;99649.31;;;-145.95;100.00
37648;BME280;23490;53.656;10.076;2023-11-18T07:09:38;99688.56;;;-145.95;100.00
37648;BME280;23490;53.656;10.076;2023-11-18T07:12:05;99649.31;;;-145.95;100.00
37648;BME280;23490;53.656;10.076;2023-11-18T07:14:30;99641.06;;;-145.95;100.00
37648;BME280;23490;53.656;10.076;2023-11-18T07:16:56;99707.16;;;-145.95;100.00
37648;BME280;23490;53.656;10.076;2023-11-18T07:19:21;99649.31;;;-145.95;100.00
37648;BME280;23490;53.656;10.076;2023-11-18T07:21:47;99700.94;;;-145.95;100.00
37648;BME280;23490;53.656;10.076;2023-11-18T07:24:14;99678.22;;;-145.95;100.00
37648;BME280;23490;53.656;10.076;2023-11-18T07:26:39;99698.88;;;-145.95;100.00
37648;BME280;23490;53.656;10.076;2023-11-18T07:29:08;99645.19;;;-145.95;100.00
37648;BME280;23490;53.656;10.076;2023-11-18T07:31:34;99674.09;;;-145.95;100.00
37648;BME280;23490;53.656;10.076;2023-11-18T07:34:03;99665.84;;;-145.95;100.00
37648;BME280;23490;53.656;10.076;2023-11-18T07:36:28;99632.78;;;-145.95;100.00
37648;BME280;23490;53.656;10.076;2023-11-18T07:38:57;99632.78;;;-145.95;100.00
37648;BME280;23490;53.656;10.076;2023-11-18T07:41:24;99684.44;;;-145.95;100.00
37648;BME280;23490;53.656;10.076;2023-11-18T07:43:54;99684.44;;;-145.95;100.00
37648;BME280;23490;53.656;10.076;2023-11-18T07:46:22;99672.03;;;-145.95;100.00
37648;BME280;23490;53.656;10.076;2023-11-18T07:48:51;99653.44;;;-145.95;100.00
37648;BME280;23490;53.656;10.076;2023-11-18T07:51:20;99636.94;;;-145.95;100.00
37648;BME280;23490;53.656;10.076;2023-11-18T07:53:49;99665.84;;;-145.95;100.00
37648;BME280;23490;53.656;10.076;2023-11-18T07:56:15;99645.19;;;-145.95;100.00
37648;BME280;23490;53.656;10.076;2023-11-18T07:58:42;99653.44;;;-145.95;100.00
37648;BME280;23490;53.656;10.076;2023-11-18T08:01:14;99674.09;;;-145.95;100.00
37648;BME280;23490;53.656;10.076;2023-11-18T08:03:41;99645.19;;;-145.95;100.00
37648;BME280;23490;53.656;10.076;2023-11-18T08:06:07;99643.13;;;-145.95;100.00
37648;BME280;23490;53.656;10.076;2023-11-18T08:08:34;99653.44;;;-145.95;100.00
37648;BME280;23490;53.656;10.076;2023-11-18T08:11:00;99665.84;;;-145.95;100.00
37648;BME280;23490;53.656;10.076;2023-11-18T08:13:25;99624.53;;;-145.95;100.00
37648;BME280;23490;53.656;10.076;2023-11-18T08:15:51;99649.31;;;-145.95;100.00
37648;BME280;23490;53.656;10.076;2023-11-18T08:18:17;99624.53;;;-145.95;100.00
37648;BME280;23490;53.656;10.076;2023-11-18T08:20:43;99618.34;;;-145.95;100.00
37648;BME280;23490;53.656;10.076;2023-11-18T08:23:09;99624.53;;;-145.95;100.00
37648;BME280;23490;53.656;10.076;2023-11-18T08:25:35;99618.34;;;-145.95;100.00
37648;BME280;23490;53.656;10.076;2023-11-18T08:28:01;99583.22;;;-145.95;100.00
37648;BME280;23490;53.656;10.076;2023-11-18T08:30:27;99591.50;;;-145.95;100.00
37648;BME280;23490;53.656;10.076;2023-11-18T08:32:53;99628.66;;;-145.95;100.00
37648;BME280;23490;53.656;10.076;2023-11-18T08:35:18;99574.97;;;-145.95;100.00
37648;BME280;23490;53.656;10.076;2023-11-18T08:37:44;99612.16;;;-145.95;100.00
37648;BME280;23490;53.656;10.076;2023-11-18T08:40:13;99618.34;;;-145.95;100.00
37648;BME280;23490;53.656;10.076;2023-11-18T08:42:46;99628.66;;;-145.95;100.00
37648;BME280;23490;53.656;10.076;2023-11-18T08:45:22;99649.31;;;-145.95;100.00
37648;BME280;23490;53.656;10.076;2023-11-18T08:47:53;99603.88;;;-145.95;100.00
37648;BME280;23490;53.656;10.076;2023-11-18T08:50:18;99608.00;;;-145.95;100.00
37648;BME280;23490;53.656;10.076;2023-11-18T08:52:45;99620.41;;;-145.95;100.00
37648;BME280;23490;53.656;10.076;2023-11-18T08:55:14;99620.41;;;-145.95;100.00
37648;BME280;23490;53.656;10.076;2023-11-18T08:57:49;99599.75;;;-145.95;100.00
37648;BME280;23490;53.656;10.076;2023-11-18T09:00:29;99595.63;;;-145.95;100.00
37648;BME280;23490;53.656;10.076;2023-11-18T09:03:11;99595.63;;;-145.95;100.00
37648;BME280;23490;53.656;10.076;2023-11-18T09:05:44;99610.06;;;-145.95;100.00
37648;BME280;23490;53.656;10.076;2023-11-18T09:08:31;99566.69;;;-145.95;99.34
37648;BME280;23490;53.656;10.076;2023-11-18T09:11:07;99603.88;;;-145.95;97.38
37648;BME280;23490;53.656;10.076;2023-11-18T09:13:33;99579.09;;;-145.95;96.35
37648;BME280;23490;53.656;10.076;2023-11-18T09:16:02;99603.88;;;-145.95;95.61
37648;BME280;23490;53.656;10.076;2023-11-18T09:18:31;99537.78;;;-145.95;95.69
37648;BME280;23490;53.656;10.076;2023-11-18T09:20:58;99597.69;;;-145.95;93.82
37648;BME280;23490;53.656;10.076;2023-11-18T09:23:25;99574.97;;;-145.95;93.95
37648;BME280;23490;53.656;10.076;2023-11-18T09:25:52;99610.06;;;-145.95;93.38
37648;BME280;23490;53.656;10.076;2023-11-18T09:28:19;99550.19;;;-145.95;94.60
37648;BME280;23490;53.656;10.076;2023-11-18T09:30:45;99595.63;;;-145.95;94.33
37648;BME280;23490;53.656;10.076;2023-11-18T09:33:24;99599.75;;;-145.95;94.75
37648;BME280;23490;53.656;10.076;2023-11-18T09:36:12;99616.28;;;-145.95;95.10
37648;BME280;23490;53.656;10.076;2023-11-18T09:38:39;99595.63;;;-145.95;95.36
37648;BME280;23490;53.656;10.076;2023-11-18T09:41:09;99583.22;;;-145.95;94.92
37648;BME280;23490;53.656;10.076;2023-11-18T09:43:39;99562.56;;;-145.95;94.14
37648;BME280;23490;53.656;10.076;2023-11-18T09:46:09;99574.97;;;-145.95;93.65
37648;BME280;23490;53.656;10.076;2023-11-18T09:48:49;99587.34;;;-145.95;92.80
37648;BME280;23490;53.656;10.076;2023-11-18T09:51:28;99587.34;;;-145.95;91.52
37648;BME280;23490;53.656;10.076;2023-11-18T09:53:59;99579.09;;;-145.95;92.02
37648;BME280;23490;53.656;10.076;2023-11-18T09:56:30;99589.44;;;-145.95;90.65
37648;BME280;23490;53.656;10.076;2023-11-18T09:59:17;99550.19;;;-145.95;89.33
37648;BME280;23490;53.656;10.076;2023-11-18T10:01:50;99570.84;;;-145.95;89.33
37648;BME280;23490;53.656;10.076;2023-11-18T10:04:19;99570.84;;;-145.95;89.05
37648;BME280;23490;53.656;10.076;2023-11-18T10:06:46;99546.06;;;-145.95;89.19
37648;BME280;23490;53.656;10.076;2023-11-18T10:09:12;99550.19;;;-145.95;86.93
37648;BME280;23490;53.656;10.076;2023-11-18T10:11:43;99492.34;;;-145.95;86.13
37648;BME280;23490;53.656;10.076;2023-11-18T10:14:12;99521.28;;;-145.95;83.92
37648;BME280;23490;53.656;10.076;2023-11-18T10:16:41;99525.41;;;-145.95;83.89
37648;BME280;23490;53.656;10.076;2023-11-18T10:19:07;99539.84;;;-145.95;81.32
37648;BME280;23490;53.656;10.076;2023-11-18T10:21:34;99529.53;;;-145.95;81.31
37648;BME280;23490;53.656;10.076;2023-11-18T10:24:05;99529.53;;;-145.95;81.50
37648;BME280;23490;53.656;10.076;2023-11-18T10:26:35;99498.56;;;-145.95;79.76
37648;BME280;23490;53.656;10.076;2023-11-18T10:29:03;99517.13;;;-145.95;79.66
37648;BME280;23490;53.656;10.076;2023-11-18T10:31:33;99484.09;;;-145.95;81.43
37648;BME280;23490;53.656;10.076;2023-11-18T10:34:01;99558.44;;;-145.95;80.06
37648;BME280;23490;53.656;10.076;2023-11-18T10:36:26;99484.09;;;-145.95;79.03
37648;BME280;23490;53.656;10.076;2023-11-18T10:38:53;99471.69;;;-145.95;79.56
37648;BME280;23490;53.656;10.076;2023-11-18T10:41:21;99494.41;;;-145.95;79.07
37648;BME280;23490;53.656;10.076;2023-11-18T10:43:48;99463.44;;;-145.95;78.94
37648;BME280;23490;53.656;10.076;2023-11-18T10:46:15;99469.63;;;-145.95;79.38
37648;BME280;23490;53.656;10.076;2023-11-18T10:48:47;99479.97;;;-145.95;78.29
37648;BME280;23490;53.656;10.076;2023-11-18T10:51:17;99430.41;;;-145.95;77.46
37648;BME280;23490;53.656;10.076;2023-11-18T10:53:47;99391.16;;;-145.95;77.56
37648;BME280;23490;53.656;10.076;2023-11-18T10:56:22;99314.75;;;-145.95;74.93
37648;BME280;23490;53.656;10.076;2023-11-18T10:59:05;99236.28;;;-145.95;74.97
37648;BME280;23490;53.656;10.076;2023-11-18T11:01:32;99236.28;;;-145.95;71.14
37648;BME280;23490;53.656;10.076;2023-11-18T11:03:58;99141.28;;;-145.95;69.83
37648;BME280;23490;53.656;10.076;2023-11-18T11:06:27;99159.88;;;-145.95;67.09
37648;BME280;23490;53.656;10.076;2023-11-18T11:08:56;99186.72;;;-145.95;67.10
37648;BME280;23490;53.656;10.076;2023-11-18T11:11:24;99157.81;;;-145.95;65.89
37648;BME280;23490;53.656;10.076;2023-11-18T11:13:57;99207.38;;;-145.95;64.01
37648;BME280;23490;53.656;10.076;2023-11-18T11:16:28;99126.81;;;-145.95;63.16
37648;BME280;23490;53.656;10.076;2023-11-18T11:19:02;99112.38;;;-145.95;62.56
37648;BME280;23490;53.656;10.076;2023-11-18T11:21:42;99079.34;;;-145.95;60.07
37648;BME280;23490;53.656;10.076;2023-11-18T11:27:19;99120.63;;;-145.95;63.06
37648;BME280;23490;53.656;10.076;2023-11-18T11:29:59;99052.47;;;-145.95;60.06
37648;BME280;23490;53.656;10.076;2023-11-18T11:32:39;99145.41;;;-145.95;61.35
37648;BME280;23490;53.656;10.076;2023-11-18T11:35:10;99071.06;;;-145.95;58.96
37648;BME280;23490;53.656;10.076;2023-11-18T11:37:44;99180.50;;;-145.95;61.50
37648;BME280;23490;53.656;10.076;2023-11-18T11:40:12;99223.88;;;-145.95;60.67
37648;BME280;23490;53.656;10.076;2023-11-18T11:42:41;99302.34;;;-145.95;62.93
37648;BME280;23490;53.656;10.076;2023-11-18T11:45:08;99298.22;;;-145.95;64.79
37648;BME280;23490;53.656;10.076;2023-11-18T11:47:47;99323.00;;;-145.95;64.69
37648;BME280;23490;53.656;10.076;2023-11-18T11:50:20;99343.66;;;-145.95;66.49
37648;BME280;23490;53.656;10.076;2023-11-18T11:52:56;99292.03;;;-145.95;68.39
37648;BME280;23490;53.656;10.076;2023-11-18T11:55:36;99364.31;;;-145.95;67.20
37648;BME280;23490;53.656;10.076;2023-11-18T11:58:03;99325.06;;;-145.95;67.68
37648;BME280;23490;53.656;10.076;2023-11-18T12:00:31;99364.31;;;-145.95;66.80
37648;BME280;23490;53.656;10.076;2023-11-18T12:03:02;99364.31;;;-145.95;66.86
37648;BME280;23490;53.656;10.076;2023-11-18T12:05:31;99401.50;;;-145.95;66.10
37648;BME280;23490;53.656;10.076;2023-11-18T12:07:58;99362.25;;;-145.95;66.40
37648;BME280;23490;53.656;10.076;2023-11-18T12:10:30;99356.06;;;-145.95;66.51
37648;BME280;23490;53.656;10.076;2023-11-18T12:13:09;99289.97;;;-145.95;67.18
37648;BME280;23490;53.656;10.076;2023-11-18T12:15:55;99380.84;;;-145.95;67.98
37648;BME280;23490;53.656;10.076;2023-11-18T12:18:23;99376.69;;;-145.95;67.42
37648;BME280;23490;53.656;10.076;2023-11-18T12:20:49;99356.06;;;-145.95;68.18
37648;BME280;23490;53.656;10.076;2023-11-18T12:23:23;99405.63;;;-145.95;69.84
37648;BME280;23490;53.656;10.076;2023-11-18T12:25:53;99401.50;;;-145.95;70.65
37648;BME280;23490;53.656;10.076;2023-11-18T12:28:21;99384.97;;;-145.95;70.61
37648;BME280;23490;53.656;10.076;2023-11-18T12:30:55;99347.78;;;-145.95;70.21